ADDS METAR Data INFO
IDs: Format: Raw Decoded Include TAF

Data at: 0043 UTC 23 Oct 2017

PAKN 230026Z 18011KT 1 1/2SM -SN BR OVC017 01/M01 A2953 RMK AO2 SNE03B19 P0000 T00061006
PAKN 230021Z 18010KT 6SM -SN BR BKN015 OVC029 00/M01 A2953 RMK AO2 SNE03B19 P0000 T00001011
PAKN 222359Z 19008KT 5SM -SN BR FEW015 BKN030 OVC060 00/M01 A2952 RMK AO2 P0000 T00001006
PAKN 222354Z 18009KT 2 1/2SM -SN BR BKN026 BKN038 OVC060 00/M01 A2952 RMK AO2 SNB14 SLP996 P0000 60009 T00001006 10000 21022 53007
PAKN 222343Z 19012KT 2 1/2SM -SN BR FEW008 BKN024 OVC037 00/M01 A2952 RMK AO2 SNB14 P0000 T00001006
PAKN 222335Z 19015KT 3SM -SN BR SCT012 BKN026 OVC039 00/M01 A2951 RMK AO2 SNB14 P0000 T00001006
PAKN 222328Z 19014G21KT 2 1/2SM -SN BR SCT010 BKN027 OVC040 00/M01 A2951 RMK AO2 SNB14 P0000 T00001006
PAKN 222317Z 19013KT 5SM -SN BR BKN011 BKN075 00/M01 A2951 RMK AO2 SNB14 P0000 T00001011
PAKN 222254Z 18014KT 10SM FEW038 FEW120 00/M01 A2951 RMK AO2 UPB18E22SNE18 SLP992 P0001 T00001011
PAKN 222231Z 18013KT 10SM FEW007 SCT011 BKN040 00/M01 A2950 RMK AO2 UPB18E22SNE18 P0001 T00001011
PAKN 222222Z 18015G20KT 9SM BKN011 OVC028 00/M01 A2950 RMK AO2 UPB18E22SNE18 P0001 T00001011
PAKN 222215Z 18013G20KT 2 1/2SM -SN BR BKN013 OVC028 00/M01 A2950 RMK AO2 P0001 T00001006
PAKN 222211Z 18012KT 3/4SM -SN BR BKN013 OVC028 00/M01 A2950 RMK AO2 P0001 T00001006 RVRNO
PAKN 222202Z 19013G20KT 3/4SM -SN BR BKN017 BKN050 00/M01 A2950 RMK AO2 P0000 T00001006 RVRNO
PAKN 222154Z 19013KT 2 1/2SM -SN BR BKN019 BKN049 OVC060 M01/M01 A2950 RMK AO2 SNB15 SLP990 P0003 T10061011
PAKN 222151Z 19015KT 2SM -SN BR BKN017 BKN049 OVC060 M01/M01 A2950 RMK AO2 SNB15 P0003
PAKN 222143Z 19012KT 2SM -SN BR BKN013 M01/M01 A2949 RMK AO2 SNB15 P0003 T10061006
PAKN 222135Z 19014KT 1/2SM -SN FZFG VV012 M01/M01 A2949 RMK AO2 SNB15 P0003 T10061006 RVRNO
PAKN 222132Z 19014KT 1/4SM SN FZFG BKN007 OVC014 M01/M01 A2949 RMK AO2 SNB15 P0003 T10061006 RVRNO
PAKN 222122Z 20015G21KT 1/2SM SN FZFG BKN007 BKN012 OVC027 M01/M01 A2948 RMK AO2 SNB15 P0001 T10061006 RVRNO
PAKN 222116Z 20016G21KT 1/2SM -SN FG BKN011 BKN019 OVC027 00/M01 A2948 RMK AO2 SNB15 P0000 T00001011 RVRNO
PAKN 222054Z 18012KT 9SM SCT012 OVC022 00/M01 A2947 RMK AO2 SNB05E51 SLP980 P0002 60005 T00001006 53017
PAKN 222043Z 17012KT 3SM -SN BR BKN012 OVC025 M01/M01 A2947 RMK AO2 SNB05 P0002 T10061006
PAKN 222034Z 18015KT 1/4SM SN FZFG VV013 M01/M01 A2947 RMK AO2 SNB05 P0001 T10061006 RVRNO
PAKN 222025Z 18013KT 1/2SM SN FZFG FEW007 OVC020 M01/M01 A2946 RMK AO2 SNB05 P0000 T10061011 RVRNO
PAKN 222013Z 18010KT 1 3/4SM -SN BR SCT008 BKN029 OVC095 M01/M01 A2945 RMK AO2 SNB05 P0000 T10061011
PAKN 222010Z 19013KT 2 1/2SM -SN BR SCT008 BKN033 OVC095 M01/M01 A2945 RMK AO2 SNB05 P0000 T10061011
PAKN 221954Z 19009KT 10SM BKN009 BKN080 OVC095 M01/M01 A2945 RMK AO2 SNB26E39 SLP972 P0000 T10061011
PAKN 221931Z 16010KT 5SM -SN BR OVC010 M01/M01 A2944 RMK AO2 SNB26 P0000 T10111011
PAKN 221907Z 14008KT 9SM BKN009 BKN017 OVC035 M02/M02 A2943 RMK AO2 T10171022
PAKN 221854Z 13008KT 7SM FEW010 OVC017 M02/M03 A2943 RMK AO2 SNE50 SLP966 P0003 T10221028
PAKN 221847Z 13008KT 3SM -SN BR FEW014 OVC019 M02/M03 A2943 RMK AO2 P0003 T10221028
PAKN 221844Z 13008KT 1SM -SN BR VV018 M02/M03 A2943 RMK AO2 P0003 T10221028 RVRNO
PAKN 221829Z 14007KT 1/2SM SN FZFG VV012 M03/M03 A2943 RMK AO2 P0002 T10281028 RVRNO
PAKN 221805Z 14007KT 3/4SM -SN BR FEW009 OVC029 M03/M04 A2942 RMK AO2 P0000 T10331039 RVRNO
PAKN 221801Z 14007KT 1 1/4SM -SN BR FEW009 OVC033 M03/M04 A2942 RMK AO2 P0000 T10331039
PAKN 221754Z 14008KT 2SM -SN BR SCT009 OVC048 M03/M04 A2942 RMK AO2 SNB06 SLP963 P0000 60000 I6000 T10331039 11033 21122 51008
PAKN 221706Z 14007KT 9SM -SN BKN006 BKN011 OVC022 M06/M07 A2941 RMK AO2 SNB06 P0000 T10561067
PAKN 221654Z 15007KT 10SM FEW006 BKN012 BKN022 M07/M08 A2941 RMK AO2 SLP960 T10671078
PAKN 221652Z 15006KT 10SM FEW006 SCT012 BKN022 M07/M08 A2941 RMK AO2
PAKN 221613Z 10005KT 10SM SCT004 M11/M12 A2940 RMK AO2 T11111122
PAKN 221602Z 12004KT 10SM BKN005 BKN017 M11/M12 A2939 RMK AO2 CIG 002V006 T11061117
PAKN 221554Z AUTO 17003KT 10SM FEW005 M10/M11 A2940 RMK AO2 SLP955 I1000 T11001111 TSNO
PAKN 221454Z AUTO 14005KT 10SM CLR M09/M11 A2938 RMK AO2 SLP950 I1000 I3000 T10941106 51012 TSNO
PAKN 221354Z AUTO 15004KT 10SM CLR M11/M12 A2937 RMK AO2 SLP947 I1000 T11111122 TSNO
PAKN 221254Z AUTO 16004KT 10SM CLR M11/M12 A2935 RMK AO2 SLP941 I1000 T11061117 TSNO
PAKN 221154Z 17003KT 10SM CLR M11/M12 A2934 RMK AO2 SLP938 I1000 I6000 T11111122 11017 21111 51018
PAKN 221054Z 00000KT 10SM CLR M09/M10 A2933 RMK AO2 SLP931 T10941100
PAKN 220954Z 29004KT 10SM FEW055 M07/M08 A2931 RMK AO2 SLP927 T10671083
PAKN 220854Z 34005KT 10SM SCT070 M06/M07 A2929 RMK AO2 SLP920 T10561072 400221139 53018
PAKN 220754Z 33008KT 10SM FEW060 SCT075 BKN090 M03/M06 A2927 RMK AO2 SLP911 T10331056
PAKN 220654Z 36007KT 10SM BKN050 OVC070 M02/M05 A2924 RMK AO2 SLP903 T10221050
PAKN 220554Z 30005KT 9SM SCT027 OVC040 M02/M04 A2924 RMK AO2 SNB25E50 SLP902 P0000 60000 T10171044 10022 21017 53007
PAKN 220547Z 29005KT 4SM -SN BKN027 OVC038 M02/M04 A2924 RMK AO2 SNB25 P0000 T10171044
PAKN 220454Z 02006KT 10SM BKN055 OVC070 M01/M06 A2922 RMK AO2 SLP896 T10111061
PAKN 220354Z 01006KT 10SM BKN100 M01/M08 A2922 RMK AO2 SLP896 T10111078
PAKN 220254Z 02006KT 10SM FEW100 M01/M08 A2922 RMK AO2 SLP895 T10061078 56006
PAKN 220154Z 01004KT 10SM BKN110 01/M07 A2922 RMK AO2 SLP896 T00061072
PAKN 220054Z 08003KT 10SM CLR 01/M09 A2922 RMK AO2 SLP896 T00111089
PAKN 212354Z 08005KT 10SM CLR 02/M08 A2924 RMK AO2 SLP901 T00171083 10022 21117 58006
PAKN 212254Z 06004KT 10SM CLR 02/M07 A2924 RMK AO2 SLP902 T00171072
PAKN 212154Z 03003KT 10SM CLR 01/M07 A2925 RMK AO2 SLP907 T00111072
PAKN 212054Z 36004KT 10SM CLR 01/M06 A2925 RMK AO2 SLP907 T00061061 58002
PAKN 211954Z 03003KT 10SM CLR M03/M07 A2925 RMK AO2 SLP907 T10331067
PAKN 211854Z 00000KT 10SM CLR M07/M09 A2926 RMK AO2 SLP910 T10721094
PAKN 211754Z 02003KT 10SM CLR M12/M13 A2926 RMK AO2 SLP909 I6000 T11171128 11094 21139 55001
PAKN 211654Z 00000KT 10SM CLR M12/M13 A2926 RMK AO2 SLP909 T11221133
PAKN 211554Z AUTO 01007KT 10SM CLR M11/M12 A2926 RMK AO2 SLP909 I1000 T11061122 TSNO
PAKN 211454Z AUTO 35005KT 10SM CLR M11/M12 A2926 RMK AO2 SLP910 T11061122 53001 TSNO
PAKN 211354Z AUTO 35005KT 10SM CLR M11/M12 A2926 RMK AO2 SLP910 T11061117 TSNO
PAKN 211254Z AUTO 01003KT 10SM CLR M11/M13 A2926 RMK AO2 SLP909 T11111128 TSNO